createdAt,value
2018-08-19T00:10:17.035Z,94019.41
2018-08-19T00:25:59.837Z,94015.45
2018-08-19T00:41:34.303Z,94011.84
2018-08-19T00:57:09.267Z,94005.10
2018-08-19T01:12:44.439Z,94012.38
2018-08-19T01:28:19.206Z,94005.66
2018-08-19T01:43:53.478Z,94003.45
2018-08-19T01:59:28.263Z,93993.33
2018-08-19T02:15:02.935Z,94002.73
2018-08-19T02:30:37.860Z,94009.88
2018-08-19T02:46:11.439Z,94019.89
2018-08-19T03:01:44.449Z,94015.14
2018-08-19T03:17:19.130Z,94013.56
2018-08-19T03:33:01.927Z,94028.67
2018-08-19T03:48:36.635Z,94045.09
2018-08-19T04:04:11.155Z,94050.67
2018-08-19T04:19:46.136Z,94043.85
2018-08-19T04:35:20.527Z,94051.93
2018-08-19T04:50:54.878Z,94043.26
2018-08-19T05:06:29.144Z,94039.00
2018-08-19T05:22:08.007Z,94034.25
2018-08-19T05:37:42.199Z,94033.34
2018-08-19T05:53:16.375Z,94031.94
2018-08-19T06:08:50.704Z,94042.12
2018-08-19T06:24:25.301Z,94041.45
2018-08-19T06:39:59.684Z,94044.04
2018-08-19T06:55:34.320Z,94034.50
2018-08-19T07:11:08.531Z,94038.63
2018-08-19T07:26:42.775Z,94034.81
2018-08-19T07:42:17.854Z,94044.91
2018-08-19T07:57:51.801Z,94041.06
2018-08-19T08:13:26.047Z,94042.03
2018-08-19T08:29:08.707Z,94040.75
2018-08-19T08:44:43.729Z,94045.72
2018-08-19T09:00:17.097Z,94030.33
2018-08-19T09:15:52.304Z,94040.95
2018-08-19T09:31:27.137Z,94023.66
2018-08-19T09:47:01.397Z,94016.70
2018-08-19T10:02:35.918Z,94006.55
2018-08-19T10:18:09.644Z,94006.41
2018-08-19T10:33:44.069Z,93989.27
2018-08-19T10:49:18.867Z,93990.73
2018-08-19T11:04:54.254Z,93976.75
2018-08-19T11:20:31.963Z,93960.53
2018-08-19T11:36:06.720Z,93949.44
2018-08-19T11:51:50.051Z,93935.92
2018-08-19T12:07:24.577Z,93907.52
2018-08-19T12:22:59.081Z,93917.70
2018-08-19T12:38:33.707Z,93912.22
2018-08-19T12:54:14.745Z,93903.19
2018-08-19T13:09:49.464Z,93909.80
2018-08-19T13:25:23.685Z,93956.66
2018-08-19T13:40:58.589Z,93934.09
2018-08-19T13:56:32.581Z,93927.39
2018-08-19T14:12:07.129Z,93911.03
2018-08-19T14:27:41.780Z,93908.25
2018-08-19T14:43:16.309Z,93894.39
2018-08-19T14:58:50.647Z,93883.38
2018-08-19T15:14:28.993Z,93868.74
2018-08-19T15:30:05.883Z,93866.19
2018-08-19T15:45:40.139Z,93855.77
2018-08-19T16:01:15.002Z,93847.08
2018-08-19T16:16:48.822Z,93858.22
2018-08-19T16:32:22.933Z,93862.39
2018-08-19T16:47:57.480Z,93890.74
2018-08-19T17:04:04.019Z,93904.08
2018-08-19T17:19:37.549Z,93905.08
2018-08-19T17:35:11.945Z,93922.34
2018-08-19T17:50:45.053Z,93922.64
2018-08-19T18:06:18.632Z,93938.00
2018-08-19T18:21:53.929Z,93933.80
2018-08-19T18:37:28.142Z,93942.85
2018-08-19T18:53:02.137Z,93942.88
2018-08-19T19:08:36.215Z,93941.45
2018-08-19T19:24:11.041Z,93934.45
2018-08-19T19:39:45.742Z,93931.80
2018-08-19T19:55:19.848Z,93922.83
2018-08-19T20:10:54.877Z,93928.46
2018-08-19T20:26:29.185Z,93927.05
2018-08-19T20:42:03.613Z,93926.98
2018-08-19T20:57:37.818Z,93940.75
2018-08-19T21:13:11.980Z,93948.33
2018-08-19T21:28:46.179Z,93945.72
2018-08-19T21:44:20.914Z,93939.20
2018-08-19T21:59:56.230Z,93932.25
2018-08-19T22:15:34.435Z,93919.55
2018-08-19T22:31:08.671Z,93906.73
2018-08-19T22:46:42.690Z,93886.77
2018-08-19T23:02:17.074Z,93887.13
2018-08-19T23:17:51.742Z,93896.30
2018-08-19T23:33:25.835Z,93905.62
2018-08-19T23:49:00.241Z,93896.06
